Time;durP1;ratioP1;P1;durP2;ratioP2;P2;SDS_P1;SDS_P2;PMS_P1;PMS_P2;Temp;Humidity;BMP_temperature;BMP_pressure;BME280_temperature;BME280_humidity;BME280_pressure;Samples;Min_cycle;Max_cycle;Signal;HPM_P1;HPM_P2
2022/09/29 00:01:02;;;;;;;0.15;0.00;;;;;;;5.77;100.00;99799.28;5259983;28;20486;-70
2022/09/29 00:03:34;;;;;;;0.00;0.00;;;;;;;5.77;100.00;99801.06;5253791;28;21337;-69
2022/09/29 00:06:14;;;;;;;0.03;0.00;;;;;;;5.75;100.00;99808.28;5258376;28;20036;-70
2022/09/29 00:08:46;;;;;;;0.10;0.00;;;;;;;5.71;100.00;99802.34;5261035;28;20147;-69
2022/09/29 00:11:18;;;;;;;0.00;0.00;;;;;;;5.67;100.00;99804.38;5253750;28;20163;-70
2022/09/29 00:13:50;;;;;;;0.10;0.00;;;;;;;5.64;100.00;99807.25;5250454;28;20082;-70
2022/09/29 00:16:21;;;;;;;0.15;0.00;;;;;;;5.64;100.00;99803.78;5252328;28;20064;-71
2022/09/29 00:18:53;;;;;;;0.00;0.00;;;;;;;5.62;100.00;99809.19;5253106;28;20039;-71
2022/09/29 00:21:25;;;;;;;0.10;0.00;;;;;;;5.61;100.00;99801.34;5254998;28;20043;-70
2022/09/29 00:23:59;;;;;;;0.00;0.00;;;;;;;5.58;100.00;99804.19;5258698;28;20463;-69
2022/09/29 00:26:31;;;;;;;0.00;0.00;;;;;;;5.56;100.00;99798.19;5258113;28;20419;-69
2022/09/29 00:29:02;;;;;;;0.00;0.00;;;;;;;5.53;100.00;99793.97;5250332;28;20036;-70
2022/09/29 00:31:33;;;;;;;0.10;0.00;;;;;;;5.52;100.00;99794.06;5249702;28;20029;-70
2022/09/29 00:34:05;;;;;;;0.17;0.00;;;;;;;5.50;100.00;99799.47;5249641;28;20032;-70
2022/09/29 00:36:36;;;;;;;0.03;0.00;;;;;;;5.45;100.00;99791.88;5257136;28;20033;-70
2022/09/29 00:39:07;;;;;;;0.10;0.00;;;;;;;5.44;100.00;99789.34;5264833;28;20064;-70
2022/09/29 00:41:40;;;;;;;0.20;0.00;;;;;;;5.42;100.00;99794.72;5250636;28;20051;-70
2022/09/29 00:44:12;;;;;;;0.15;0.00;;;;;;;5.41;100.00;99792.22;5257125;28;20044;-70
2022/09/29 00:46:57;;;;;;;0.10;0.00;;;;;;;5.39;100.00;99796.75;5253914;28;20029;-71
2022/09/29 00:49:52;;;;;;;0.00;0.00;;;;;;;5.38;100.00;99800.34;5257887;28;20147;-71
2022/09/29 00:52:33;;;;;;;0.00;0.00;;;;;;;5.36;100.00;99807.56;5248348;28;20057;-69
2022/09/29 00:55:12;;;;;;;0.05;0.00;;;;;;;5.34;100.00;99794.44;5254319;28;20059;-69
2022/09/29 00:58:27;;;;;;;0.17;0.00;;;;;;;5.33;100.00;99800.69;5252221;28;20021;-71
2022/09/29 01:00:58;;;;;;;0.15;0.10;;;;;;;5.29;100.00;99791.28;5251270;28;20031;-69
2022/09/29 01:03:34;;;;;;;0.20;0.00;;;;;;;5.27;100.00;99799.34;5249910;28;20021;-70
2022/09/29 01:06:13;;;;;;;0.10;0.00;;;;;;;5.23;100.00;99797.84;5251511;28;20028;-70
2022/09/29 01:09:06;;;;;;;0.00;0.00;;;;;;;5.21;100.00;99791.81;5260248;28;20377;-71
2022/09/29 01:11:38;;;;;;;0.00;0.00;;;;;;;5.21;100.00;99788.34;5255315;28;20545;-69
2022/09/29 01:14:10;;;;;;;0.17;0.00;;;;;;;5.19;100.00;99791.09;5248902;28;20081;-70
2022/09/29 01:16:42;;;;;;;0.00;0.00;;;;;;;5.17;100.00;99784.22;5260247;28;20492;-70
2022/09/29 01:19:39;;;;;;;0.00;0.00;;;;;;;5.14;100.00;99792.38;5257063;28;20034;-70
2022/09/29 01:22:36;;;;;;;0.10;0.00;;;;;;;5.11;100.00;99791.63;5216557;28;20067;-69
2022/09/29 01:25:32;;;;;;;0.17;0.00;;;;;;;5.09;100.00;99787.41;5265366;28;20131;-70
2022/09/29 01:28:17;;;;;;;0.17;0.00;;;;;;;5.08;100.00;99796.28;5253005;28;20024;-69
2022/09/29 01:31:22;;;;;;;0.32;0.00;;;;;;;5.06;100.00;99801.72;5260862;28;20456;-70
2022/09/29 01:33:54;;;;;;;;;;;;;;;5.06;100.00;99790.25;5237037;28;20039;-69
2022/09/29 01:36:35;;;;;;;0.00;0.00;;;;;;;5.03;100.00;99798.44;5262135;28;20598;-69
2022/09/29 01:39:22;;;;;;;0.10;0.00;;;;;;;4.99;100.00;99803.09;5259860;28;20033;-70
2022/09/29 01:42:04;;;;;;;0.17;0.00;;;;;;;5.00;100.00;99804.75;5262058;28;20529;-70
2022/09/29 01:44:45;;;;;;;0.00;0.00;;;;;;;5.01;100.00;99801.16;5262614;28;20041;-70
2022/09/29 01:47:24;;;;;;;0.20;0.00;;;;;;;4.98;100.00;99796.09;5251121;28;20073;-69
2022/09/29 01:50:04;;;;;;;0.15;0.00;;;;;;;4.94;100.00;99793.78;5264881;28;20040;-69
2022/09/29 01:52:43;;;;;;;0.00;0.00;;;;;;;4.97;100.00;99806.78;5252269;28;20045;-70
2022/09/29 01:55:21;;;;;;;0.00;0.00;;;;;;;4.96;100.00;99802.44;5260354;28;20111;-69
2022/09/29 01:58:10;;;;;;;0.00;0.00;;;;;;;4.95;100.00;99800.75;5248688;28;20146;-70
2022/09/29 02:00:50;;;;;;;0.20;0.00;;;;;;;4.90;100.00;99801.91;5255112;28;20378;-70
2022/09/29 02:03:24;;;;;;;0.13;0.00;;;;;;;4.92;100.00;99804.44;5258821;28;20665;-70
2022/09/29 02:06:02;;;;;;;0.30;0.00;;;;;;;4.93;100.00;99800.00;5255747;28;20132;-69
2022/09/29 02:08:45;;;;;;;0.00;0.00;;;;;;;4.94;100.00;99805.19;5260671;28;20039;-70
2022/09/29 02:11:17;;;;;;;0.00;0.00;;;;;;;4.93;100.00;99800.00;5260134;28;20043;-70
2022/09/29 02:14:02;;;;;;;0.15;0.00;;;;;;;4.92;100.00;99801.81;5264278;28;20039;-70
2022/09/29 02:16:42;;;;;;;0.00;0.00;;;;;;;4.90;100.00;99795.78;5255533;28;20035;-69
2022/09/29 02:19:21;;;;;;;0.10;0.00;;;;;;;4.90;100.00;99799.28;5259138;28;20487;-70
2022/09/29 02:21:53;;;;;;;0.30;0.10;;;;;;;4.91;100.00;99800.13;5260739;28;20024;-69
2022/09/29 02:24:25;;;;;;;0.00;0.00;;;;;;;4.89;100.00;99800.25;5266306;28;20085;-71
2022/09/29 02:26:57;;;;;;;0.13;0.08;;;;;;;4.89;100.00;99794.13;5258826;28;20037;-69
2022/09/29 02:29:28;;;;;;;0.13;0.00;;;;;;;4.88;100.00;99795.88;5255350;28;20031;-69
2022/09/29 02:32:01;;;;;;;0.00;0.00;;;;;;;4.89;100.00;99805.53;5253905;28;20475;-69
2022/09/29 02:34:40;;;;;;;0.10;0.00;;;;;;;4.89;100.00;99802.88;5254788;28;20039;-70
2022/09/29 02:37:23;;;;;;;0.38;0.00;;;;;;;4.90;100.00;99798.44;5250883;28;20033;-70
2022/09/29 02:40:26;;;;;;;0.00;0.00;;;;;;;4.90;100.00;99809.00;5262304;28;20036;-71
2022/09/29 02:43:28;;;;;;;0.00;0.00;;;;;;;4.89;100.00;99802.88;5252145;28;20040;-69
2022/09/29 02:46:10;;;;;;;0.32;0.00;;;;;;;4.84;100.00;99807.63;5250060;28;20531;-70
2022/09/29 02:49:02;;;;;;;0.13;0.00;;;;;;;4.85;100.00;99797.91;5247615;28;20639;-70
2022/09/29 02:51:40;;;;;;;0.50;0.00;;;;;;;4.85;100.00;99806.69;5252741;28;20058;-69
2022/09/29 02:54:50;;;;;;;0.10;0.00;;;;;;;4.84;100.00;99812.09;5250706;28;20561;-70
2022/09/29 02:57:38;;;;;;;0.15;0.00;;;;;;;4.81;100.00;99807.00;5235973;28;20048;-70
2022/09/29 03:00:12;;;;;;;0.28;0.08;;;;;;;4.80;100.00;99805.31;5249063;28;20037;-70
2022/09/29 03:02:43;;;;;;;0.15;0.10;;;;;;;4.78;100.00;99808.06;5255049;28;20029;-69
2022/09/29 03:05:18;;;;;;;0.10;0.00;;;;;;;4.77;100.00;99814.28;5250587;28;21368;-70
2022/09/29 03:07:49;;;;;;;0.10;0.00;;;;;;;4.76;100.00;99803.84;5256171;28;20036;-69
2022/09/29 03:10:21;;;;;;;0.20;0.05;;;;;;;4.72;100.00;99805.84;5266353;28;21788;-70
2022/09/29 03:12:52;;;;;;;0.00;0.00;;;;;;;4.70;100.00;99805.13;5261550;28;20158;-69
2022/09/29 03:15:23;;;;;;;0.40;0.00;;;;;;;4.67;100.00;99811.44;5252696;28;20117;-70
2022/09/29 03:17:56;;;;;;;0.10;0.00;;;;;;;4.65;100.00;99800.13;5251550;28;20045;-69
2022/09/29 03:20:27;;;;;;;0.10;0.00;;;;;;;4.65;100.00;99804.56;5253029;28;20052;-70
2022/09/29 03:22:58;;;;;;;0.00;0.00;;;;;;;4.63;100.00;99799.38;5250691;28;20108;-70
2022/09/29 03:25:29;;;;;;;0.20;0.08;;;;;;;4.60;100.00;99798.75;5257109;28;20032;-69
2022/09/29 03:28:01;;;;;;;0.00;0.00;;;;;;;4.58;100.00;99803.28;5258690;28;20108;-69
2022/09/29 03:30:32;;;;;;;0.00;0.00;;;;;;;4.58;100.00;99803.28;5252584;28;20089;-70
2022/09/29 03:33:03;;;;;;;0.00;0.00;;;;;;;4.56;100.00;99803.38;5256874;28;20557;-69
2022/09/29 03:35:35;;;;;;;0.00;0.00;;;;;;;4.58;100.00;99800.66;5255337;28;20033;-69
2022/09/29 03:38:06;;;;;;;0.00;0.00;;;;;;;4.54;100.00;99800.00;5249676;28;20037;-69
2022/09/29 03:40:37;;;;;;;0.00;0.00;;;;;;;4.52;100.00;99801.91;5264082;28;20064;-70
2022/09/29 03:43:09;;;;;;;0.15;0.00;;;;;;;4.48;100.00;99803.91;5265772;28;20032;-70
2022/09/29 03:45:48;;;;;;;0.10;0.00;;;;;;;4.48;100.00;99801.28;5258225;28;20037;-70
2022/09/29 03:48:21;;;;;;;0.17;0.00;;;;;;;4.46;100.00;99808.47;5249260;28;20033;-70
2022/09/29 03:50:53;;;;;;;0.10;0.00;;;;;;;4.43;100.00;99797.25;5257304;28;20048;-70
2022/09/29 03:53:24;;;;;;;0.30;0.10;;;;;;;4.42;100.00;99806.97;5254916;28;20467;-69
2022/09/29 03:55:56;;;;;;;0.28;0.03;;;;;;;4.43;100.00;99805.19;5254374;28;20501;-69
2022/09/29 03:58:27;;;;;;;0.20;0.00;;;;;;;4.40;100.00;99803.59;5254357;28;20372;-69
2022/09/29 04:00:59;;;;;;;0.00;0.00;;;;;;;4.37;100.00;99803.78;5262033;28;20043;-70
2022/09/29 04:03:31;;;;;;;0.00;0.00;;;;;;;4.37;100.00;99810.88;5250364;28;20115;-70
2022/09/29 04:06:02;;;;;;;0.00;0.00;;;;;;;4.36;100.00;99817.97;5254379;28;20033;-69
2022/09/29 04:08:37;;;;;;;0.13;0.00;;;;;;;4.36;100.00;99819.75;5253420;28;20552;-69
2022/09/29 04:11:08;;;;;;;0.68;0.00;;;;;;;4.35;100.00;99816.25;5259954;28;20035;-70
2022/09/29 04:13:39;;;;;;;0.05;0.00;;;;;;;4.31;100.00;99813.00;5263469;28;20037;-70
2022/09/29 04:16:10;;;;;;;0.20;0.00;;;;;;;4.28;100.00;99821.13;5253944;28;20639;-70
2022/09/29 04:18:42;;;;;;;0.00;0.00;;;;;;;4.26;100.00;99827.47;5251178;28;20043;-71
2022/09/29 04:21:13;;;;;;;0.20;0.00;;;;;;;4.24;100.00;99824.06;5256520;28;20033;-69
2022/09/29 04:23:45;;;;;;;0.38;0.00;;;;;;;4.21;100.00;99834.84;5256514;28;20116;-71
2022/09/29 04:26:19;;;;;;;0.10;0.00;;;;;;;4.18;100.00;99832.38;5254804;28;20021;-71
2022/09/29 04:28:50;;;;;;;0.00;0.00;;;;;;;4.15;100.00;99829.97;5259267;28;20644;-69
2022/09/29 04:31:21;;;;;;;0.35;0.00;;;;;;;4.16;100.00;99835.16;5259754;28;20028;-69
2022/09/29 04:33:53;;;;;;;0.20;0.00;;;;;;;4.14;100.00;99834.38;5263862;28;20036;-71
2022/09/29 04:36:24;;;;;;;0.10;0.00;;;;;;;4.12;100.00;99834.50;5262565;28;20024;-71
2022/09/29 04:38:55;;;;;;;0.00;0.00;;;;;;;4.10;100.00;99831.13;5265081;28;20066;-71
2022/09/29 04:41:27;;;;;;;0.08;0.00;;;;;;;4.08;100.00;99832.16;5265124;28;20039;-69
2022/09/29 04:43:58;;;;;;;0.32;0.17;;;;;;;4.08;100.00;99840.06;5264314;28;20021;-70
2022/09/29 04:46:30;;;;;;;0.00;0.00;;;;;;;4.05;100.00;99841.13;5250022;28;20040;-71
2022/09/29 04:49:01;;;;;;;0.00;0.00;;;;;;;4.03;100.00;99848.28;5257818;28;20028;-71
2022/09/29 04:51:32;;;;;;;0.30;0.05;;;;;;;4.01;100.00;99839.63;5262179;28;20076;-69
2022/09/29 04:54:03;;;;;;;0.00;0.00;;;;;;;3.99;100.00;99841.53;5259447;28;20021;-70
2022/09/29 04:56:35;;;;;;;0.05;0.00;;;;;;;3.97;100.00;99846.06;5260006;28;20440;-70
2022/09/29 04:59:07;;;;;;;0.00;0.00;;;;;;;3.97;100.00;99842.56;5259161;28;20037;-70
2022/09/29 05:01:38;;;;;;;0.10;0.00;;;;;;;3.94;100.00;99846.25;5257435;28;20021;-69
2022/09/29 05:04:11;;;;;;;0.30;0.00;;;;;;;3.95;100.00;99852.38;5256203;28;20021;-70
2022/09/29 05:06:43;;;;;;;0.00;0.00;;;;;;;3.96;100.00;99843.53;5265307;28;20017;-71
2022/09/29 05:09:14;;;;;;;0.10;0.00;;;;;;;3.96;100.00;99856.72;5259965;28;20416;-71
2022/09/29 05:11:45;;;;;;;0.00;0.00;;;;;;;3.97;100.00;99853.09;5260185;28;20116;-71
2022/09/29 05:14:16;;;;;;;0.00;0.00;;;;;;;3.96;100.00;99854.06;5261629;28;21521;-70
2022/09/29 05:16:48;;;;;;;0.15;0.00;;;;;;;3.96;100.00;99867.28;5258196;28;20033;-71
2022/09/29 05:19:19;;;;;;;0.30;0.10;;;;;;;3.95;100.00;99860.28;5252914;28;20033;-71
2022/09/29 05:21:50;;;;;;;0.40;0.00;;;;;;;3.95;100.00;99863.78;5252963;28;20055;-71
2022/09/29 05:24:22;;;;;;;0.10;0.00;;;;;;;3.96;100.00;99877.81;5262744;28;20028;-71
2022/09/29 05:26:54;;;;;;;0.10;0.00;;;;;;;3.93;100.00;99873.56;5258541;28;20107;-71
2022/09/29 05:29:25;;;;;;;0.20;0.00;;;;;;;3.93;100.00;99876.22;5253358;28;20073;-71
2022/09/29 05:31:56;;;;;;;0.08;0.00;;;;;;;3.92;100.00;99879.81;5259424;28;20115;-70
2022/09/29 05:34:27;;;;;;;0.00;0.00;;;;;;;3.90;100.00;99885.19;5263810;28;20422;-69
2022/09/29 05:36:59;;;;;;;0.28;0.10;;;;;;;3.89;100.00;99883.50;5271268;28;20040;-71
2022/09/29 05:39:33;;;;;;;0.10;0.00;;;;;;;3.87;100.00;99876.63;5260641;28;20102;-71
2022/09/29 05:42:05;;;;;;;;;;;;;;;3.85;100.00;99881.16;5262097;28;20059;-71
2022/09/29 05:44:36;;;;;;;0.15;0.00;;;;;;;3.83;100.00;99883.03;5264081;28;20352;-71
2022/09/29 05:47:07;;;;;;;0.20;0.00;;;;;;;3.83;100.00;99880.41;5258878;28;20104;-71
2022/09/29 05:49:39;;;;;;;0.00;0.00;;;;;;;3.85;100.00;99878.50;5250016;28;20036;-71
2022/09/29 05:52:10;;;;;;;0.20;0.00;;;;;;;3.86;100.00;99886.31;5258693;28;20068;-71
2022/09/29 05:54:41;;;;;;;0.00;0.00;;;;;;;3.87;100.00;99885.41;5265548;28;20036;-72
2022/09/29 05:57:13;;;;;;;0.00;0.00;;;;;;;3.88;100.00;99886.25;5256689;28;20071;-71
2022/09/29 05:59:44;;;;;;;0.10;0.00;;;;;;;3.89;100.00;99894.06;5254837;28;20024;-71
2022/09/29 06:02:15;;;;;;;0.00;0.00;;;;;;;3.91;100.00;99896.56;5249883;28;20127;-71
2022/09/29 06:04:48;;;;;;;0.20;0.00;;;;;;;3.92;100.00;99895.66;5251507;28;20024;-70
2022/09/29 06:07:19;;;;;;;0.00;0.00;;;;;;;3.91;100.00;99897.44;5251826;28;20024;-71
2022/09/29 06:09:50;;;;;;;0.00;0.00;;;;;;;3.92;100.00;99901.75;5260164;28;20488;-71
2022/09/29 06:12:22;;;;;;;0.22;0.00;;;;;;;3.93;100.00;99900.84;5258311;28;20021;-69
2022/09/29 06:14:53;;;;;;;0.13;0.00;;;;;;;3.95;100.00;99898.09;5263529;28;21546;-71
2022/09/29 06:17:24;;;;;;;0.00;0.00;;;;;;;3.97;100.00;99906.75;5268529;28;20243;-69
2022/09/29 06:19:55;;;;;;;0.40;0.00;;;;;;;4.00;100.00;99905.72;5266606;28;20452;-69
2022/09/29 06:22:27;;;;;;;0.25;0.00;;;;;;;4.01;100.00;99913.53;5273169;28;20070;-71
2022/09/29 06:24:58;;;;;;;0.10;0.00;;;;;;;4.04;100.00;99912.47;5275968;28;20031;-69
2022/09/29 06:27:29;;;;;;;0.10;0.00;;;;;;;4.07;100.00;99905.22;5288933;28;20466;-69
2022/09/29 06:30:01;;;;;;;0.10;0.00;;;;;;;4.11;100.00;99908.50;5270942;28;20033;-71
2022/09/29 06:32:33;;;;;;;0.00;0.00;;;;;;;4.14;100.00;99908.28;5269070;28;20108;-69
2022/09/29 06:37:55;;;;;;;0.38;0.00;;;;;;;4.21;100.00;99914.03;5282239;28;20048;-70
2022/09/29 06:40:26;;;;;;;0.00;0.00;;;;;;;4.23;100.00;99926.19;5276247;28;20029;-71
2022/09/29 06:42:58;;;;;;;0.05;0.00;;;;;;;4.26;100.00;99933.06;5284224;28;20020;-71
2022/09/29 06:45:29;;;;;;;0.10;0.00;;;;;;;4.29;100.00;99923.13;5271436;28;20542;-71
2022/09/29 06:48:02;;;;;;;0.15;0.00;;;;;;;4.31;100.00;99929.19;5283667;28;20031;-71
2022/09/29 06:50:33;;;;;;;0.32;0.00;;;;;;;4.38;100.00;99936.69;5274686;28;20065;-71
2022/09/29 06:53:05;;;;;;;0.20;0.00;;;;;;;4.40;100.00;99934.81;5287232;28;20039;-71
2022/09/29 06:55:36;;;;;;;0.00;0.00;;;;;;;4.44;100.00;99931.84;5268683;28;20032;-71
2022/09/29 06:58:08;;;;;;;0.28;0.10;;;;;;;4.50;100.00;99935.88;5279741;28;20062;-71
2022/09/29 07:00:39;;;;;;;0.13;0.00;;;;;;;4.53;100.00;99940.97;5258309;28;20087;-71
2022/09/29 07:03:10;;;;;;;0.47;0.00;;;;;;;4.57;100.00;99937.19;5254502;28;20051;-71
2022/09/29 07:05:42;;;;;;;0.00;0.00;;;;;;;4.61;100.00;99936.03;5253739;28;20210;-71
2022/09/29 07:08:14;;;;;;;0.00;0.00;;;;;;;4.63;100.00;99939.41;5259123;28;20032;-71
2022/09/29 07:10:47;;;;;;;0.00;0.00;;;;;;;4.65;100.00;99956.00;5261543;28;20036;-69
2022/09/29 07:13:18;;;;;;;0.10;0.00;;;;;;;4.70;100.00;99953.06;5258393;28;20375;-71
2022/09/29 07:15:50;;;;;;;0.10;0.00;;;;;;;4.74;100.00;99951.06;5262900;28;20039;-71
2022/09/29 07:18:21;;;;;;;0.10;0.00;;;;;;;4.76;100.00;99957.94;5273081;28;20463;-69
2022/09/29 07:20:55;;;;;;;0.00;0.00;;;;;;;4.83;100.00;99961.00;5271250;28;20234;-71
2022/09/29 07:23:26;;;;;;;0.00;0.00;;;;;;;4.86;100.00;99963.47;5269374;28;20021;-69
2022/09/29 07:25:58;;;;;;;0.10;0.00;;;;;;;4.89;100.00;99972.03;5256497;28;20544;-71
2022/09/29 07:28:29;;;;;;;0.30;0.00;;;;;;;4.94;100.00;99970.88;5266111;28;20024;-69
2022/09/29 07:31:10;;;;;;;0.22;0.00;;;;;;;4.98;100.00;99978.50;5261370;28;20107;-71
2022/09/29 07:33:42;;;;;;;0.10;0.00;;;;;;;5.04;100.00;99977.22;5268971;28;20025;-70
2022/09/29 07:36:15;;;;;;;0.20;0.00;;;;;;;5.09;100.00;99969.84;5256586;28;20506;-70
2022/09/29 07:38:49;;;;;;;0.20;0.00;;;;;;;5.14;100.00;99980.09;5258900;28;20021;-71
2022/09/29 07:41:21;;;;;;;0.00;0.00;;;;;;;5.17;100.00;99978.09;5265666;28;20028;-69
2022/09/29 07:43:53;;;;;;;0.17;0.10;;;;;;;5.21;100.00;99979.56;5268141;28;20024;-70
2022/09/29 07:46:25;;;;;;;0.20;0.10;;;;;;;5.26;100.00;99982.75;5261006;28;20470;-70
2022/09/29 07:48:56;;;;;;;0.05;0.00;;;;;;;5.29;100.00;99976.41;5268254;28;20031;-69
2022/09/29 07:51:27;;;;;;;0.00;0.00;;;;;;;5.33;100.00;99980.56;5273310;28;20075;-69
2022/09/29 07:54:03;;;;;;;0.00;0.00;;;;;;;5.38;100.00;99986.34;5270317;28;20548;-69
2022/09/29 07:56:35;;;;;;;0.25;0.03;;;;;;;5.43;100.00;99983.41;5246545;28;20028;-69
2022/09/29 07:59:06;;;;;;;0.30;0.10;;;;;;;5.48;100.00;99989.22;5268643;28;20025;-70
2022/09/29 08:01:37;;;;;;;0.28;0.03;;;;;;;5.55;100.00;99995.78;5263446;28;20021;-71
2022/09/29 08:04:08;;;;;;;0.10;0.00;;;;;;;5.59;100.00;99989.31;5260978;28;20024;-70
2022/09/29 08:06:40;;;;;;;0.47;0.10;;;;;;;5.65;100.00;99988.06;5262791;28;20109;-70
2022/09/29 08:09:12;;;;;;;0.30;0.00;;;;;;;5.71;100.00;99992.91;5274822;28;20107;-71
2022/09/29 08:11:43;;;;;;;0.20;0.00;;;;;;;5.77;100.00;99996.94;5268828;28;20028;-70
2022/09/29 08:14:14;;;;;;;0.00;0.00;;;;;;;5.84;100.00;99999.03;5266554;28;20242;-70
2022/09/29 08:16:46;;;;;;;0.57;0.00;;;;;;;5.90;100.00;100003.06;5264879;28;20078;-71
2022/09/29 08:19:17;;;;;;;0.38;0.00;;;;;;;5.96;100.00;100001.81;5250653;28;20087;-71
2022/09/29 08:21:48;;;;;;;0.15;0.00;;;;;;;5.99;100.00;100010.38;5263664;28;20034;-71
2022/09/29 08:24:20;;;;;;;0.00;0.00;;;;;;;6.05;100.00;100014.41;5268072;28;20470;-71
2022/09/29 08:26:51;;;;;;;0.40;0.03;;;;;;;6.09;100.00;100016.72;5269233;28;20501;-71
2022/09/29 08:29:22;;;;;;;0.55;0.10;;;;;;;6.12;100.00;100020.97;5269922;28;20024;-71
2022/09/29 08:31:55;;;;;;;0.10;0.03;;;;;;;6.16;100.00;100019.78;5265124;28;20021;-71
2022/09/29 08:34:26;;;;;;;0.17;0.00;;;;;;;6.16;100.00;100027.72;5266598;28;20028;-71
2022/09/29 08:36:58;;;;;;;0.00;0.00;;;;;;;6.19;100.00;100032.78;5276031;28;20554;-71
2022/09/29 08:39:30;;;;;;;0.00;0.00;;;;;;;6.22;100.00;100035.22;5263643;28;20489;-70
2022/09/29 08:42:07;;;;;;;0.00;0.00;;;;;;;6.26;100.00;100044.66;5268983;28;20024;-71
2022/09/29 08:44:42;;;;;;;0.00;0.00;;;;;;;6.28;100.00;100047.19;5266792;28;20424;-70
2022/09/29 08:47:36;;;;;;;0.00;0.00;;;;;;;6.34;100.00;100048.56;5266469;28;20078;-70
2022/09/29 08:50:34;;;;;;;0.28;0.00;;;;;;;6.39;100.00;100038.47;5259593;28;20433;-72
2022/09/29 08:53:11;;;;;;;0.47;0.00;;;;;;;6.43;100.00;100045.25;5268000;28;20525;-71
2022/09/29 08:55:45;;;;;;;0.47;0.20;;;;;;;6.50;100.00;100045.63;5267926;28;20032;-71
2022/09/29 08:58:17;;;;;;;0.40;0.00;;;;;;;6.54;100.00;100045.31;5268016;28;20381;-71
2022/09/29 09:01:11;;;;;;;0.00;0.00;;;;;;;6.61;100.00;100051.00;5273224;28;20052;-72
2022/09/29 09:04:30;;;;;;;0.32;0.08;;;;;;;6.71;100.00;100052.03;5263761;28;20037;-71
2022/09/29 09:07:26;;;;;;;0.28;0.00;;;;;;;6.80;100.00;100054.00;5188078;28;20045;-71
2022/09/29 09:10:22;;;;;;;0.20;0.00;;;;;;;6.90;100.00;100053.31;5190777;28;20069;-72
2022/09/29 09:13:06;;;;;;;0.10;0.00;;;;;;;7.00;100.00;100054.31;5258962;28;20045;-71
2022/09/29 09:16:08;;;;;;;0.05;0.00;;;;;;;7.12;100.00;100064.03;5276123;28;20036;-70
2022/09/29 09:19:04;;;;;;;0.00;0.00;;;;;;;7.21;100.00;100055.41;5256410;28;20147;-71
2022/09/29 09:21:40;;;;;;;0.05;0.00;;;;;;;7.35;100.00;100056.16;5268988;28;20062;-71
2022/09/29 09:24:20;;;;;;;0.00;0.00;;;;;;;7.47;100.00;100069.34;5261015;28;20098;-71
2022/09/29 09:26:52;;;;;;;0.20;0.00;;;;;;;7.56;100.00;100061.66;5266652;28;20024;-72
2022/09/29 09:29:29;;;;;;;0.10;0.00;;;;;;;7.70;100.00;100063.25;5269917;28;20055;-71
2022/09/29 09:32:09;;;;;;;0.05;0.00;;;;;;;7.80;100.00;100072.19;5265802;28;20021;-72
2022/09/29 09:34:52;;;;;;;0.15;0.00;;;;;;;7.90;100.00;100059.88;5262619;28;20024;-72
2022/09/29 09:37:30;;;;;;;0.08;0.00;;;;;;;7.98;100.00;100060.13;5264349;28;20132;-72
2022/09/29 09:40:10;;;;;;;0.00;0.00;;;;;;;8.05;100.00;100061.34;5271381;28;20033;-72
2022/09/29 09:42:49;;;;;;;0.13;0.00;;;;;;;8.14;100.00;100065.06;5256456;28;20060;-73
2022/09/29 09:45:31;;;;;;;0.00;0.00;;;;;;;8.27;100.00;100064.13;5260473;28;20471;-72
2022/09/29 09:48:32;;;;;;;0.00;0.00;;;;;;;8.36;100.00;100063.38;5264618;28;20033;-72
2022/09/29 09:51:29;;;;;;;0.00;0.00;;;;;;;8.48;100.00;100072.22;5258481;28;20410;-72
2022/09/29 09:54:08;;;;;;;0.00;0.00;;;;;;;8.59;100.00;100064.19;5259109;28;20124;-72
2022/09/29 09:56:45;;;;;;;0.10;0.00;;;;;;;8.70;100.00;100074.81;5270288;28;20395;-71
2022/09/29 09:59:19;;;;;;;0.30;0.00;;;;;;;8.77;100.00;100075.19;5257310;28;20043;-71
2022/09/29 10:01:51;;;;;;;0.05;0.00;;;;;;;8.82;100.00;100070.31;5264165;28;20418;-71
2022/09/29 10:04:24;;;;;;;0.10;0.00;;;;;;;8.88;100.00;100066.31;5264507;28;20028;-72
2022/09/29 10:06:57;;;;;;;0.10;0.00;;;;;;;8.94;100.00;100076.47;5258698;28;20032;-72
2022/09/29 10:09:29;;;;;;;0.05;0.00;;;;;;;9.02;100.00;100071.34;5263099;28;20071;-72
2022/09/29 10:12:01;;;;;;;0.08;0.00;;;;;;;9.12;100.00;100076.75;5260244;28;20035;-71
2022/09/29 10:14:33;;;;;;;0.25;0.00;;;;;;;9.15;100.00;100072.03;5258450;28;20037;-71
2022/09/29 10:17:11;;;;;;;0.10;0.00;;;;;;;9.25;100.00;100068.59;5260966;28;20075;-72
2022/09/29 10:19:58;;;;;;;0.57;0.10;;;;;;;9.36;100.00;100072.06;5265387;28;20482;-72
2022/09/29 10:22:29;;;;;;;0.22;0.03;;;;;;;9.43;100.00;100075.03;5261154;28;20056;-72
2022/09/29 10:25:14;;;;;;;0.10;0.00;;;;;;;9.47;100.00;100079.13;5266599;28;20116;-72
2022/09/29 10:27:50;;;;;;;0.00;0.00;;;;;;;9.48;100.00;100086.16;5258440;28;20044;-72
2022/09/29 10:30:31;;;;;;;0.00;0.00;;;;;;;9.49;100.00;100090.53;5276875;28;20070;-73
2022/09/29 10:33:05;;;;;;;0.90;0.00;;;;;;;9.54;100.00;100085.63;5258343;28;20047;-72
2022/09/29 10:35:39;;;;;;;0.00;0.00;;;;;;;9.59;100.00;100093.25;5263074;28;20040;-73
2022/09/29 10:38:19;;;;;;;;;;;;;;;9.67;100.00;100092.59;5257060;28;20044;-73
2022/09/29 10:41:01;;;;;;;0.10;0.00;;;;;;;9.68;100.00;100087.13;5260676;28;20026;-73
2022/09/29 10:43:40;;;;;;;0.00;0.00;;;;;;;9.70;100.00;100093.16;5265300;28;20604;-73
2022/09/29 10:46:38;;;;;;;0.00;0.00;;;;;;;9.76;100.00;100091.78;5275226;28;20086;-73
2022/09/29 10:49:19;;;;;;;0.00;0.00;;;;;;;9.80;100.00;100086.09;5256321;28;20031;-73
2022/09/29 10:52:03;;;;;;;0.15;0.00;;;;;;;9.85;100.00;100085.69;5258485;28;20048;-73
2022/09/29 10:54:51;;;;;;;0.00;0.00;;;;;;;9.91;100.00;100090.47;5260309;28;20429;-73
2022/09/29 10:57:26;;;;;;;0.17;0.00;;;;;;;9.95;100.00;100096.38;5254203;28;20032;-73
2022/09/29 10:59:57;;;;;;;;;;;;;;;9.99;100.00;100093.34;5272300;28;20056;-73
2022/09/29 11:02:33;;;;;;;0.10;0.00;;;;;;;10.01;100.00;100102.06;5265403;28;19959;-73
2022/09/29 11:05:16;;;;;;;0.10;0.00;;;;;;;10.08;100.00;100102.34;5262639;28;20071;-73
2022/09/29 11:07:51;;;;;;;0.08;0.00;;;;;;;10.12;100.00;100097.59;5260760;28;20074;-74
2022/09/29 11:10:31;;;;;;;0.00;0.00;;;;;;;10.17;100.00;100095.41;5261621;28;20036;-74
2022/09/29 11:13:23;;;;;;;0.00;0.00;;;;;;;10.23;100.00;100100.19;5255983;28;20402;-74
2022/09/29 11:16:03;;;;;;;0.03;0.00;;;;;;;10.24;100.00;100101.03;5275395;28;20475;-74
2022/09/29 11:18:37;;;;;;;0.00;0.00;;;;;;;10.33;100.00;100097.59;5264216;28;20028;-74
2022/09/29 11:21:20;;;;;;;0.55;0.10;;;;;;;10.51;100.00;100103.16;5262159;28;20032;-74
2022/09/29 11:24:06;;;;;;;0.00;0.00;;;;;;;10.61;100.00;100090.69;5262540;28;20029;-74
2022/09/29 11:26:52;;;;;;;0.38;0.10;;;;;;;10.71;100.00;100098.69;5277605;28;20155;-73
2022/09/29 11:29:49;;;;;;;0.00;0.00;;;;;;;10.82;100.00;100095.09;5266798;28;20029;-73
2022/09/29 11:32:29;;;;;;;0.00;0.00;;;;;;;10.89;100.00;100093.53;5270420;28;20184;-73
2022/09/29 11:35:06;;;;;;;0.00;0.00;;;;;;;10.99;100.00;100097.06;5267996;28;20074;-73
2022/09/29 11:37:58;;;;;;;0.00;0.00;;;;;;;11.07;100.00;100099.88;5266394;28;20035;-74
2022/09/29 11:40:46;;;;;;;0.22;0.03;;;;;;;11.14;100.00;100101.03;5263381;28;20563;-74
2022/09/29 11:43:28;;;;;;;0.22;0.00;;;;;;;11.13;100.00;100091.31;5278690;28;20124;-74
2022/09/29 11:46:32;;;;;;;0.00;0.00;;;;;;;11.27;100.00;100106.06;5264001;28;20032;-74
2022/09/29 11:49:28;;;;;;;0.00;0.00;;;;;;;11.39;100.00;100109.47;5266655;28;20035;-74
2022/09/29 11:52:05;;;;;;;0.00;0.00;;;;;;;11.42;100.00;100108.34;5271791;28;20100;-74
2022/09/29 11:54:56;;;;;;;0.00;0.00;;;;;;;11.46;100.00;100113.25;5270707;28;20048;-74
2022/09/29 11:57:59;;;;;;;0.10;0.00;;;;;;;11.52;100.00;100114.50;5268076;28;20030;-74
2022/09/29 12:00:40;;;;;;;0.17;0.00;;;;;;;11.56;100.00;100116.78;5268006;28;20518;-74
2022/09/29 12:03:21;;;;;;;0.00;0.00;;;;;;;11.63;100.00;100110.84;5262558;28;20043;-74
2022/09/29 12:06:20;;;;;;;0.00;0.00;;;;;;;11.71;100.00;100110.97;5266048;28;20495;-74
2022/09/29 12:09:23;;;;;;;0.00;0.00;;;;;;;11.76;100.00;100119.41;5265203;28;20391;-74
2022/09/29 12:12:13;;;;;;;0.00;0.00;;;;;;;11.87;100.00;100113.03;5261272;28;20067;-74
2022/09/29 12:15:17;;;;;;;0.10;0.00;;;;;;;12.05;100.00;100115.88;5264591;28;20515;-73
2022/09/29 12:17:55;;;;;;;0.00;0.00;;;;;;;12.11;100.00;100116.13;5264635;28;20106;-74
2022/09/29 12:20:30;;;;;;;0.00;0.00;;;;;;;12.24;100.00;100114.97;5261394;28;20021;-74